createdAt,value
2023-04-07T00:00:37.576Z,98769.20
2023-04-07T00:01:25.343Z,98768.73
2023-04-07T00:02:23.696Z,98765.61
2023-04-07T00:03:13.073Z,98765.59
2023-04-07T00:04:01.491Z,98762.77
2023-04-07T00:04:49.613Z,98759.45
2023-04-07T00:06:16.351Z,98765.06
2023-04-07T00:07:20.428Z,98758.34
2023-04-07T00:08:32.951Z,98756.84
2023-04-07T00:09:48.068Z,98758.23
2023-04-07T00:10:35.224Z,98756.19
2023-04-07T00:11:43.766Z,98750.15
2023-04-07T00:12:37.464Z,98742.54
2023-04-07T00:13:35.896Z,98739.41
2023-04-07T00:14:51.324Z,98732.02
2023-04-07T00:15:32.036Z,98723.27
2023-04-07T00:16:34.423Z,98725.70
2023-04-07T00:17:21.446Z,98731.98
2023-04-07T00:18:36.963Z,98733.46
2023-04-07T00:19:12.022Z,98740.01
2023-04-07T00:20:01.783Z,98742.05
2023-04-07T00:20:36.688Z,98744.44
2023-04-07T00:21:33.345Z,98746.59
2023-04-07T00:22:45.764Z,98746.69
2023-04-07T00:23:45.966Z,98750.98
2023-04-07T00:25:18.470Z,98751.91
2023-04-07T00:26:42.394Z,98757.03
2023-04-07T00:27:37.908Z,98756.77
2023-04-07T00:29:00.288Z,98759.52
2023-04-07T00:30:25.933Z,98760.14
2023-04-07T00:31:18.804Z,98755.98
2023-04-07T00:32:39.969Z,98756.34
2023-04-07T00:34:12.837Z,98757.89
2023-04-07T00:35:17.515Z,98755.38
2023-04-07T00:36:42.942Z,98761.54
2023-04-07T00:37:36.987Z,98761.56
2023-04-07T00:38:49.608Z,98757.59
2023-04-07T00:39:59.878Z,98758.44
2023-04-07T00:40:41.411Z,98761.59
2023-04-07T00:41:48.679Z,98759.48
2023-04-07T00:42:48.218Z,98752.20
2023-04-07T00:43:51.133Z,98750.52
2023-04-07T00:44:50.337Z,98753.02
2023-04-07T00:45:45.067Z,98753.70
2023-04-07T00:46:54.809Z,98761.07
2023-04-07T00:48:10.301Z,98757.04
2023-04-07T00:48:48.452Z,98754.64
2023-04-07T00:49:27.923Z,98759.43
2023-04-07T00:50:32.582Z,98759.50
2023-04-07T00:51:58.138Z,98760.18
2023-04-07T00:53:02.929Z,98762.11
2023-04-07T00:54:28.816Z,98758.00
2023-04-07T00:55:21.554Z,98756.68
2023-04-07T00:56:45.027Z,98758.89
2023-04-07T00:57:46.811Z,98756.20
2023-04-07T00:58:59.203Z,98757.23
2023-04-07T00:59:57.825Z,98756.47
2023-04-07T01:01:03.099Z,98754.55
2023-04-07T01:02:39.189Z,98760.02
2023-04-07T01:03:58.214Z,98758.02
2023-04-07T01:05:49.334Z,98757.83
2023-04-07T01:07:13.635Z,98754.27
2023-04-07T01:08:49.017Z,98757.23
2023-04-07T01:10:05.923Z,98766.76
2023-04-07T01:11:21.600Z,98766.70
2023-04-07T01:12:57.887Z,98761.17
2023-04-07T01:14:29.682Z,98761.39
2023-04-07T01:15:43.402Z,98761.13
2023-04-07T01:16:55.217Z,98758.45
2023-04-07T01:18:07.702Z,98750.49
2023-04-07T01:19:49.296Z,98747.48
2023-04-07T01:20:47.400Z,98745.13
2023-04-07T01:21:42.853Z,98740.83
2023-04-07T01:23:06.021Z,98742.48
2023-04-07T01:24:26.390Z,98742.88
2023-04-07T01:25:55.379Z,98740.11
2023-04-07T01:26:51.152Z,98744.25
2023-04-07T01:28:17.954Z,98746.30
2023-04-07T01:29:13.049Z,98751.02
2023-04-07T01:29:58.413Z,98756.00
2023-04-07T01:31:08.015Z,98751.67
2023-04-07T01:32:10.509Z,98755.85
2023-04-07T01:33:08.824Z,98762.33
2023-04-07T01:34:14.240Z,98758.61
2023-04-07T01:35:13.731Z,98759.29
2023-04-07T01:36:07.031Z,98763.05
2023-04-07T01:37:21.738Z,98757.13
2023-04-07T01:38:37.616Z,98756.23
2023-04-07T01:39:17.363Z,98760.55
2023-04-07T01:40:49.813Z,98762.30
2023-04-07T01:42:02.577Z,98769.98
2023-04-07T01:43:23.866Z,98771.83
2023-04-07T01:44:56.366Z,98770.96
2023-04-07T01:46:07.521Z,98770.11
2023-04-07T01:47:39.144Z,98768.08
2023-04-07T01:48:51.923Z,98759.99
2023-04-07T01:49:52.012Z,98762.95
2023-04-07T01:51:00.039Z,98768.23
2023-04-07T01:52:32.644Z,98770.27
2023-04-07T01:53:37.468Z,98764.42
2023-04-07T01:55:03.018Z,98760.23
2023-04-07T01:56:35.630Z,98757.05
2023-04-07T01:57:56.949Z,98750.78
2023-04-07T01:59:01.520Z,98744.11
2023-04-07T02:00:33.969Z,98746.66
2023-04-07T02:01:55.249Z,98745.08
2023-04-07T02:03:11.137Z,98742.64
2023-04-07T02:04:10.116Z,98742.94
2023-04-07T02:05:40.076Z,98743.78
2023-04-07T02:06:49.437Z,98745.69
2023-04-07T02:08:21.988Z,98744.65
2023-04-07T02:09:47.427Z,98743.97
2023-04-07T02:11:07.690Z,98742.66
2023-04-07T02:12:40.246Z,98744.66
2023-04-07T02:13:58.026Z,98743.73
2023-04-07T02:15:09.377Z,98743.27
2023-04-07T02:16:32.056Z,98744.20
2023-04-07T02:17:42.029Z,98744.84
2023-04-07T02:19:13.565Z,98743.95
2023-04-07T02:20:12.328Z,98746.18
2023-04-07T02:21:37.836Z,98746.69
2023-04-07T02:23:10.530Z,98751.16
2023-04-07T02:24:13.277Z,98755.48
2023-04-07T02:25:46.012Z,98755.02
2023-04-07T02:27:07.018Z,98763.38
2023-04-07T02:28:39.636Z,98765.48
2023-04-07T02:29:42.913Z,98768.59
2023-04-07T02:30:57.855Z,98761.95
2023-04-07T02:32:03.527Z,98756.64
2023-04-07T02:33:29.086Z,98755.22
2023-04-07T02:35:01.581Z,98752.13
2023-04-07T02:36:16.584Z,98753.77
2023-04-07T02:37:22.049Z,98757.33
2023-04-07T02:38:37.222Z,98756.22
2023-04-07T02:40:02.318Z,98757.92
2023-04-07T02:41:16.707Z,98755.67
2023-04-07T02:42:43.169Z,98751.63
2023-04-07T02:43:25.089Z,98746.05
2023-04-07T02:44:39.484Z,98750.09
2023-04-07T02:46:01.374Z,98751.84
2023-04-07T02:47:22.572Z,98758.21
2023-04-07T02:48:55.171Z,98758.80
2023-04-07T02:50:27.789Z,98753.42
2023-04-07T02:51:49.528Z,98742.62
2023-04-07T02:53:13.070Z,98747.88
2023-04-07T02:54:17.809Z,98746.17
2023-04-07T02:55:21.148Z,98750.27
2023-04-07T02:56:46.795Z,98749.02
2023-04-07T02:58:12.353Z,98751.09
2023-04-07T02:59:24.874Z,98750.52
2023-04-07T03:00:57.432Z,98743.83
2023-04-07T03:02:30.727Z,98744.70
2023-04-07T03:03:48.116Z,98751.89
2023-04-07T03:05:21.515Z,98746.04
2023-04-07T03:06:53.292Z,98746.85
2023-04-07T03:08:26.941Z,98746.85
2023-04-07T03:09:32.748Z,98745.93
2023-04-07T03:10:50.750Z,98751.40
2023-04-07T03:12:08.342Z,98752.80
2023-04-07T03:13:31.220Z,98754.34
2023-04-07T03:14:46.369Z,98754.38
2023-04-07T03:16:13.316Z,98756.86
2023-04-07T03:17:18.290Z,98754.41
2023-04-07T03:18:28.836Z,98754.08
2023-04-07T03:20:01.481Z,98748.65
2023-04-07T03:21:04.114Z,98744.87
2023-04-07T03:22:36.697Z,98746.58
2023-04-07T03:23:46.435Z,98746.72
2023-04-07T03:24:28.961Z,98750.50
2023-04-07T03:26:00.370Z,98752.38
2023-04-07T03:26:50.797Z,98750.50
2023-04-07T03:27:53.665Z,98754.09
2023-04-07T03:29:06.121Z,98751.84
2023-04-07T03:30:10.236Z,98749.61
2023-04-07T03:31:13.204Z,98749.47
2023-04-07T03:32:24.677Z,98748.77
2023-04-07T03:33:29.949Z,98748.05
2023-04-07T03:34:07.551Z,98748.21
2023-04-07T03:35:09.904Z,98749.20
2023-04-07T03:36:35.355Z,98751.05
2023-04-07T03:37:40.110Z,98748.07
2023-04-07T03:38:50.925Z,98750.64
2023-04-07T03:39:36.969Z,98752.81
2023-04-07T03:40:42.452Z,98750.20
2023-04-07T03:41:57.286Z,98752.35
2023-04-07T03:43:19.992Z,98752.98
2023-04-07T03:44:24.824Z,98755.92
2023-04-07T03:45:40.302Z,98752.77
2023-04-07T03:46:47.950Z,98751.08
2023-04-07T03:48:11.559Z,98752.22
2023-04-07T03:49:04.361Z,98752.80
2023-04-07T03:50:05.846Z,98753.77
2023-04-07T03:50:56.113Z,98748.95
2023-04-07T03:52:09.547Z,98751.29
2023-04-07T03:53:16.097Z,98756.77
2023-04-07T03:54:35.085Z,98762.27
2023-04-07T03:56:08.079Z,98762.99
2023-04-07T03:57:26.103Z,98758.84
2023-04-07T03:58:42.176Z,98755.09
2023-04-07T03:59:57.398Z,98750.89
2023-04-07T04:00:46.436Z,98749.67
2023-04-07T04:01:41.753Z,98747.66
2023-04-07T04:03:04.141Z,98746.88
2023-04-07T04:04:16.856Z,98750.73
2023-04-07T04:05:40.538Z,98751.33
2023-04-07T04:06:54.669Z,98755.30
2023-04-07T04:07:52.765Z,98754.63
2023-04-07T04:08:31.405Z,98755.98
2023-04-07T04:09:21.975Z,98755.76
2023-04-07T04:10:14.424Z,98756.23
2023-04-07T04:11:11.618Z,98757.75
2023-04-07T04:12:22.950Z,98758.44
2023-04-07T04:13:12.535Z,98762.02
2023-04-07T04:14:10.451Z,98762.17
2023-04-07T04:15:25.654Z,98766.20
2023-04-07T04:16:14.528Z,98765.98
2023-04-07T04:17:07.434Z,98766.23
2023-04-07T04:18:23.772Z,98767.71
2023-04-07T04:19:40.735Z,98768.31
2023-04-07T04:20:51.566Z,98770.34
2023-04-07T04:22:03.857Z,98766.45
2023-04-07T04:22:53.180Z,98766.19
2023-04-07T04:24:03.666Z,98768.27
2023-04-07T04:25:01.632Z,98769.08
2023-04-07T04:26:10.350Z,98767.82
2023-04-07T04:27:15.849Z,98766.98
2023-04-07T04:27:54.273Z,98766.77
2023-04-07T04:28:52.169Z,98766.22
2023-04-07T04:29:32.293Z,98764.53
2023-04-07T04:30:08.220Z,98767.40
2023-04-07T04:30:48.799Z,98763.29
2023-04-07T04:31:32.428Z,98764.81
2023-04-07T04:32:36.479Z,98767.32
2023-04-07T04:33:52.062Z,98771.36
2023-04-07T04:34:41.685Z,98772.37
2023-04-07T04:35:21.711Z,98773.52
2023-04-07T04:36:34.956Z,98776.55
2023-04-07T04:37:46.817Z,98778.27
2023-04-07T04:38:41.840Z,98776.13
2023-04-07T04:39:47.142Z,98781.10
2023-04-07T04:41:12.692Z,98780.45
2023-04-07T04:42:31.229Z,98786.40
2023-04-07T04:43:25.082Z,98788.66
2023-04-07T04:44:29.961Z,98785.15
2023-04-07T04:45:37.829Z,98787.63
2023-04-07T04:46:51.782Z,98788.08
2023-04-07T04:48:13.179Z,98786.09
2023-04-07T04:49:21.276Z,98784.67
2023-04-07T04:50:09.143Z,98784.53
2023-04-07T04:50:58.739Z,98783.59
2023-04-07T04:51:55.831Z,98781.55
2023-04-07T04:53:09.655Z,98776.41
2023-04-07T04:53:55.703Z,98780.41
2023-04-07T04:54:48.917Z,98781.73
2023-04-07T04:55:46.280Z,98786.75
2023-04-07T04:56:34.207Z,98786.39
2023-04-07T04:57:21.553Z,98791.05
2023-04-07T04:57:56.545Z,98788.95
2023-04-07T04:58:45.937Z,98792.09
2023-04-07T04:59:54.344Z,98793.39
2023-04-07T05:00:57.928Z,98789.54
2023-04-07T05:01:56.668Z,98784.45
2023-04-07T05:02:55.258Z,98786.77
2023-04-07T05:03:49.137Z,98793.40
2023-04-07T05:04:49.891Z,98794.01
2023-04-07T05:06:22.399Z,98793.35
2023-04-07T05:07:21.081Z,98796.46
2023-04-07T05:08:35.461Z,98796.11
2023-04-07T05:10:07.987Z,98800.70
2023-04-07T05:11:14.778Z,98804.61
2023-04-07T05:12:36.234Z,98804.42
2023-04-07T05:13:48.936Z,98807.36
2023-04-07T05:15:06.790Z,98811.89
2023-04-07T05:16:20.871Z,98811.70
2023-04-07T05:17:06.024Z,98816.98
2023-04-07T05:18:38.501Z,98815.52
2023-04-07T05:19:59.678Z,98816.84
2023-04-07T05:21:08.902Z,98814.27
2023-04-07T05:22:17.422Z,98816.95
2023-04-07T05:23:41.310Z,98817.36
2023-04-07T05:24:54.730Z,98814.48
2023-04-07T05:26:27.331Z,98815.27
2023-04-07T05:27:45.242Z,98810.68
2023-04-07T05:28:27.603Z,98806.73
2023-04-07T05:29:22.857Z,98809.95
2023-04-07T05:30:28.662Z,98806.95
2023-04-07T05:32:01.449Z,98807.52
2023-04-07T05:33:16.921Z,98808.61
2023-04-07T05:34:26.481Z,98808.05
2023-04-07T05:35:58.928Z,98808.27
2023-04-07T05:37:11.438Z,98808.77
2023-04-07T05:38:36.622Z,98814.10
2023-04-07T05:39:59.192Z,98817.81
2023-04-07T05:41:03.924Z,98821.11
2023-04-07T05:42:29.232Z,98817.94
2023-04-07T05:43:45.932Z,98813.52
2023-04-07T05:44:39.146Z,98812.92
2023-04-07T05:46:02.068Z,98812.46
2023-04-07T05:47:14.397Z,98812.30
2023-04-07T05:47:52.079Z,98817.20
2023-04-07T05:49:19.621Z,98816.96
2023-04-07T05:50:11.846Z,98823.29
2023-04-07T05:51:26.764Z,98825.46
2023-04-07T05:52:28.268Z,98826.42
2023-04-07T05:53:29.173Z,98828.67
2023-04-07T05:54:50.349Z,98828.08
2023-04-07T05:56:22.880Z,98829.80
2023-04-07T05:57:42.240Z,98831.61
2023-04-07T05:59:13.423Z,98827.38
2023-04-07T06:00:34.802Z,98834.23
2023-04-07T06:01:56.073Z,98834.22
2023-04-07T06:03:14.072Z,98835.86
2023-04-07T06:04:46.607Z,98834.80
2023-04-07T06:05:44.049Z,98833.64
2023-04-07T06:06:58.001Z,98833.15
2023-04-07T06:08:23.083Z,98833.95
2023-04-07T06:09:50.762Z,98834.49
2023-04-07T06:11:05.316Z,98832.67
2023-04-07T06:12:38.013Z,98825.61
2023-04-07T06:13:44.544Z,98829.11
2023-04-07T06:15:17.161Z,98834.71
2023-04-07T06:16:12.215Z,98833.60
2023-04-07T06:17:35.158Z,98835.06
2023-04-07T06:18:45.562Z,98838.86
2023-04-07T06:20:00.974Z,98839.55
2023-04-07T06:21:08.346Z,98845.75
2023-04-07T06:22:32.332Z,98843.84
2023-04-07T06:23:56.052Z,98845.19
2023-04-07T06:25:21.564Z,98839.80
2023-04-07T06:26:36.776Z,98843.54
2023-04-07T06:27:36.798Z,98844.91
2023-04-07T06:28:40.998Z,98843.80
2023-04-07T06:29:47.435Z,98841.89
2023-04-07T06:31:00.060Z,98841.41
2023-04-07T06:32:23.978Z,98840.48
2023-04-07T06:33:55.205Z,98838.69
2023-04-07T06:35:10.874Z,98836.88
2023-04-07T06:36:38.231Z,98836.47
2023-04-07T06:37:46.287Z,98838.83
2023-04-07T06:38:55.094Z,98838.48
2023-04-07T06:40:01.755Z,98839.38
2023-04-07T06:41:18.436Z,98839.42
2023-04-07T06:42:42.270Z,98836.74
2023-04-07T06:44:14.815Z,98836.85
2023-04-07T06:45:28.501Z,98838.19
2023-04-07T06:47:01.093Z,98842.98
2023-04-07T06:48:32.438Z,98844.09
2023-04-07T06:50:05.107Z,98844.28
2023-04-07T06:51:20.685Z,98843.91
2023-04-07T06:52:45.976Z,98843.59
2023-04-07T06:54:16.446Z,98840.50
2023-04-07T06:55:34.124Z,98842.25
2023-04-07T06:56:50.582Z,98846.23
2023-04-07T06:57:56.056Z,98847.88
2023-04-07T06:59:18.774Z,98848.54
2023-04-07T07:00:30.551Z,98848.64
2023-04-07T07:01:39.501Z,98853.99
2023-04-07T07:03:12.305Z,98852.08
2023-04-07T07:04:44.935Z,98851.89
2023-04-07T07:05:55.974Z,98851.61
2023-04-07T07:07:28.709Z,98850.92
2023-04-07T07:09:01.457Z,98859.23
2023-04-07T07:10:26.668Z,98857.10
2023-04-07T07:11:40.948Z,98859.89
2023-04-07T07:12:56.314Z,98857.52
2023-04-07T07:14:03.755Z,98862.03
2023-04-07T07:15:26.631Z,98860.17
2023-04-07T07:16:29.190Z,98861.61
2023-04-07T07:17:06.938Z,98866.02
2023-04-07T07:18:12.890Z,98865.56
2023-04-07T07:19:16.377Z,98866.73
2023-04-07T07:20:25.591Z,98870.74
2023-04-07T07:21:20.794Z,98868.41
2023-04-07T07:22:32.683Z,98867.71
2023-04-07T07:23:13.817Z,98874.67
2023-04-07T07:24:19.530Z,98873.70
2023-04-07T07:25:36.238Z,98874.20
2023-04-07T07:26:43.478Z,98876.16
2023-04-07T07:27:56.020Z,98880.35
2023-04-07T07:29:28.483Z,98879.71
2023-04-07T07:31:01.174Z,98879.10
2023-04-07T07:32:12.526Z,98887.65
2023-04-07T07:33:44.224Z,98887.61
2023-04-07T07:34:51.483Z,98887.13
2023-04-07T07:35:58.847Z,98885.45
2023-04-07T07:37:31.482Z,98889.73
2023-04-07T07:38:44.258Z,98889.77
2023-04-07T07:40:04.856Z,98886.50
2023-04-07T07:41:30.475Z,98887.36
2023-04-07T07:42:56.052Z,98889.54
2023-04-07T07:44:23.209Z,98892.48
2023-04-07T07:45:20.468Z,98893.11
2023-04-07T07:46:55.472Z,98896.76
2023-04-07T07:48:10.840Z,98898.65
2023-04-07T07:49:05.969Z,98900.52
2023-04-07T07:50:31.327Z,98899.46
2023-04-07T07:51:23.863Z,98903.27
2023-04-07T07:52:56.380Z,98901.53
2023-04-07T07:54:00.992Z,98904.91
2023-04-07T07:55:23.577Z,98906.23
2023-04-07T07:56:36.122Z,98900.31
2023-04-07T07:57:32.288Z,98904.61
2023-04-07T07:58:50.364Z,98898.12
2023-04-07T07:59:37.551Z,98903.64
2023-04-07T08:00:45.984Z,98902.20
2023-04-07T08:02:02.041Z,98904.48
2023-04-07T08:03:24.769Z,98904.17
2023-04-07T08:04:53.695Z,98905.34
2023-04-07T08:05:48.868Z,98906.05
2023-04-07T08:06:51.987Z,98905.63
2023-04-07T08:07:49.096Z,98904.50
2023-04-07T08:08:55.649Z,98904.02
2023-04-07T08:10:21.074Z,98904.58
2023-04-07T08:11:32.694Z,98905.17
2023-04-07T08:12:39.628Z,98906.63
2023-04-07T08:13:45.278Z,98902.67
2023-04-07T08:14:38.720Z,98901.75
2023-04-07T08:16:00.306Z,98901.91
2023-04-07T08:17:06.257Z,98904.58
2023-04-07T08:17:59.590Z,98904.99
2023-04-07T08:19:15.072Z,98907.81
2023-04-07T08:20:30.658Z,98907.95
2023-04-07T08:22:03.194Z,98909.26
2023-04-07T08:22:56.400Z,98912.50
2023-04-07T08:24:08.899Z,98916.27
2023-04-07T08:25:30.236Z,98915.08
2023-04-07T08:26:32.832Z,98917.95
2023-04-07T08:27:55.202Z,98919.25
2023-04-07T08:29:12.712Z,98923.20
2023-04-07T08:30:39.141Z,98918.45
2023-04-07T08:31:27.551Z,98913.84
2023-04-07T08:33:00.136Z,98910.33
2023-04-07T08:34:20.185Z,98915.30
2023-04-07T08:35:28.881Z,98919.32
2023-04-07T08:36:52.748Z,98919.95
2023-04-07T08:38:02.578Z,98924.60
2023-04-07T08:39:25.303Z,98928.30
2023-04-07T08:40:40.658Z,98928.02
2023-04-07T08:41:30.356Z,98927.49
2023-04-07T08:43:02.865Z,98931.80
2023-04-07T08:44:35.662Z,98932.80
2023-04-07T08:46:08.337Z,98934.71
2023-04-07T08:47:21.248Z,98928.56
2023-04-07T08:48:26.772Z,98927.80
2023-04-07T08:49:41.062Z,98925.72
2023-04-07T08:50:52.474Z,98930.75
2023-04-07T08:52:10.506Z,98931.16
2023-04-07T08:53:19.571Z,98935.34
2023-04-07T08:54:33.454Z,98941.23
2023-04-07T08:55:55.729Z,98942.55
2023-04-07T08:57:11.480Z,98942.65
2023-04-07T08:58:16.815Z,98947.16
2023-04-07T08:59:28.080Z,98949.59
2023-04-07T09:00:52.719Z,98948.78
2023-04-07T09:02:19.576Z,98948.57
2023-04-07T09:03:47.522Z,98951.38
2023-04-07T09:04:55.462Z,98950.17
2023-04-07T09:06:02.120Z,98950.98
2023-04-07T09:07:23.501Z,98948.31
2023-04-07T09:08:56.031Z,98948.73
2023-04-07T09:10:14.122Z,98946.45
2023-04-07T09:11:38.646Z,98949.40
2023-04-07T09:12:54.130Z,98947.52
2023-04-07T09:14:08.856Z,98949.84
2023-04-07T09:15:09.936Z,98950.79
2023-04-07T09:16:13.592Z,98949.50
2023-04-07T09:17:15.455Z,98951.70
2023-04-07T09:18:22.528Z,98951.36
2023-04-07T09:19:55.023Z,98947.16
2023-04-07T09:21:35.691Z,98947.52
2023-04-07T09:23:07.394Z,98951.31
2023-04-07T09:24:39.941Z,98952.55
2023-04-07T09:26:15.470Z,98951.41
2023-04-07T09:27:50.829Z,98951.05
2023-04-07T09:29:23.509Z,98949.35
2023-04-07T09:30:57.196Z,98949.61
2023-04-07T09:32:38.075Z,98949.63
2023-04-07T09:34:03.237Z,98949.82
2023-04-07T09:35:35.434Z,98951.84
2023-04-07T09:37:09.117Z,98954.16
2023-04-07T09:38:11.121Z,98957.11
2023-04-07T09:39:44.653Z,98960.96
2023-04-07T09:41:16.493Z,98958.30
2023-04-07T09:42:57.923Z,98962.06
2023-04-07T09:44:31.284Z,98965.29
2023-04-07T09:47:03.693Z,98968.83
2023-04-07T09:48:36.182Z,98975.26
2023-04-07T09:49:56.569Z,98977.19
2023-04-07T09:51:32.461Z,98980.34
2023-04-07T09:53:08.525Z,98980.77
2023-04-07T09:54:34.179Z,98988.19
2023-04-07T09:56:08.233Z,98988.02
2023-04-07T09:57:42.373Z,98986.57
2023-04-07T09:59:08.956Z,98986.71
2023-04-07T10:03:08.614Z,98995.15
2023-04-07T10:08:33.317Z,98997.19
2023-04-07T10:11:16.378Z,99000.98
2023-04-07T10:12:22.440Z,99001.96
2023-04-07T10:13:55.015Z,99002.08
2023-04-07T10:15:27.685Z,99002.56
2023-04-07T10:17:00.481Z,99003.71
2023-04-07T10:18:25.816Z,98995.64
2023-04-07T10:19:58.392Z,98997.17
2023-04-07T10:21:21.470Z,98996.62
2023-04-07T10:22:21.791Z,98998.98
2023-04-07T10:23:57.096Z,99003.45
2023-04-07T10:25:02.751Z,99000.30
2023-04-07T10:26:33.940Z,98998.78
2023-04-07T10:27:51.291Z,98999.92
2023-04-07T10:29:09.583Z,98999.35
2023-04-07T10:30:42.508Z,99004.27
2023-04-07T10:32:14.336Z,99004.58
2023-04-07T10:33:47.655Z,99004.63
2023-04-07T10:35:33.113Z,99010.52
2023-04-07T10:37:08.565Z,99012.28
2023-04-07T10:38:50.250Z,99011.42
2023-04-07T10:40:11.700Z,99011.30
2023-04-07T10:41:33.719Z,99012.73
2023-04-07T10:43:18.685Z,99013.85
2023-04-07T10:44:23.631Z,99015.45
2023-04-07T10:45:56.301Z,99017.00
2023-04-07T10:47:25.093Z,99018.02
2023-04-07T10:49:03.744Z,99017.28
2023-04-07T10:50:39.443Z,99021.80
2023-04-07T10:52:11.943Z,99022.56
2023-04-07T10:53:16.584Z,99019.03
2023-04-07T10:54:56.550Z,99021.06
2023-04-07T10:56:35.250Z,99023.08
2023-04-07T10:58:07.904Z,99024.66
2023-04-07T10:59:24.246Z,99026.21
2023-04-07T11:00:51.920Z,99026.76
2023-04-07T11:02:24.585Z,99025.89
2023-04-07T11:03:57.492Z,99029.62
2023-04-07T11:05:32.391Z,99027.36
2023-04-07T11:07:05.139Z,99023.92
2023-04-07T11:08:44.206Z,99030.20
2023-04-07T11:10:08.741Z,99028.73
2023-04-07T11:11:30.245Z,99033.56
2023-04-07T11:13:02.848Z,99032.95
2023-04-07T11:14:42.145Z,99035.04
2023-04-07T11:16:17.857Z,99038.23
2023-04-07T11:17:51.536Z,99038.91
2023-04-07T11:19:17.260Z,99040.05
2023-04-07T11:20:52.995Z,99042.08
2023-04-07T11:22:05.981Z,99042.19
2023-04-07T11:23:31.778Z,99043.93
2023-04-07T11:25:13.413Z,99042.56
2023-04-07T11:26:26.932Z,99045.05
2023-04-07T11:27:35.408Z,99044.61
2023-04-07T11:29:08.104Z,99045.86
2023-04-07T11:30:39.864Z,99045.36
2023-04-07T11:32:25.677Z,99052.41
2023-04-07T11:33:58.790Z,99050.02
2023-04-07T11:35:24.226Z,99048.95
2023-04-07T11:36:55.948Z,99052.75
2023-04-07T11:38:19.025Z,99053.07
2023-04-07T11:39:53.662Z,99056.92
2023-04-07T11:41:32.320Z,99055.98
2023-04-07T11:43:19.116Z,99058.63
2023-04-07T11:44:51.699Z,99061.38
2023-04-07T11:46:22.985Z,99062.61
2023-04-07T11:47:32.995Z,99064.77
2023-04-07T11:49:12.628Z,99064.09
2023-04-07T11:55:00.925Z,99075.17
2023-04-07T11:56:25.948Z,99071.27
2023-04-07T11:58:07.477Z,99073.18
2023-04-07T11:59:30.619Z,99073.52
2023-04-07T12:00:44.872Z,99078.63
2023-04-07T12:02:00.621Z,99072.52
2023-04-07T12:03:36.629Z,99073.48
2023-04-07T12:05:09.123Z,99074.48
2023-04-07T12:06:44.847Z,99076.70
2023-04-07T12:08:00.752Z,99080.63
2023-04-07T12:09:38.536Z,99083.14
2023-04-07T12:11:04.048Z,99083.30
2023-04-07T12:12:18.726Z,99085.33
2023-04-07T12:13:29.584Z,99087.77
2023-04-07T12:14:35.770Z,99086.10
2023-04-07T12:15:41.508Z,99090.58
2023-04-07T12:16:56.587Z,99088.53
2023-04-07T12:18:02.409Z,99088.85
2023-04-07T12:19:24.214Z,99088.31
2023-04-07T12:20:49.661Z,99089.98
2023-04-07T12:22:03.179Z,99089.43
2023-04-07T12:23:21.211Z,99091.55
2023-04-07T12:24:13.515Z,99091.77
2023-04-07T12:25:46.243Z,99092.95
2023-04-07T12:27:09.820Z,99094.88
2023-04-07T12:28:25.317Z,99092.61
2023-04-07T12:29:32.016Z,99098.55
2023-04-07T12:30:54.614Z,99095.17
2023-04-07T12:31:57.999Z,99097.23
2023-04-07T12:32:41.545Z,99099.26
2023-04-07T12:33:56.861Z,99099.86
2023-04-07T12:35:14.565Z,99102.02
2023-04-07T12:36:35.944Z,99104.98
2023-04-07T12:37:38.688Z,99104.05
2023-04-07T12:38:59.864Z,99106.16
2023-04-07T12:40:25.715Z,99105.77
2023-04-07T12:41:58.324Z,99108.48
2023-04-07T12:42:50.547Z,99110.84
2023-04-07T12:44:06.015Z,99110.26
2023-04-07T12:45:38.528Z,99107.41
2023-04-07T12:46:50.396Z,99111.15
2023-04-07T12:48:13.906Z,99115.30
2023-04-07T12:49:34.919Z,99115.93
2023-04-07T12:51:07.516Z,99114.29
2023-04-07T12:52:40.645Z,99118.34
2023-04-07T12:53:49.244Z,99118.41
2023-04-07T12:55:10.888Z,99120.45
2023-04-07T12:56:36.117Z,99121.05
2023-04-07T12:57:52.502Z,99123.89
2023-04-07T12:59:03.585Z,99123.34
2023-04-07T13:00:12.158Z,99125.31
2023-04-07T13:01:24.700Z,99127.85
2023-04-07T13:02:50.301Z,99128.00
2023-04-07T13:04:12.106Z,99129.55
2023-04-07T13:05:30.395Z,99130.94
2023-04-07T13:07:03.378Z,99131.05
2023-04-07T13:08:06.612Z,99129.02
2023-04-07T13:09:29.743Z,99129.41
2023-04-07T13:10:42.868Z,99127.44
2023-04-07T13:12:06.277Z,99130.89
2023-04-07T13:13:29.165Z,99135.39
2023-04-07T13:14:52.890Z,99135.98
2023-04-07T13:16:32.141Z,99137.95
2023-04-07T13:18:04.793Z,99135.73
2023-04-07T13:19:38.477Z,99138.67
2023-04-07T13:20:33.916Z,99136.25
2023-04-07T13:21:59.284Z,99137.10
2023-04-07T13:23:07.500Z,99139.29
2023-04-07T13:24:13.535Z,99140.25
2023-04-07T13:25:46.247Z,99144.08
2023-04-07T13:27:18.773Z,99147.40
2023-04-07T13:28:31.141Z,99147.47
2023-04-07T13:29:43.558Z,99147.42
2023-04-07T13:30:58.813Z,99146.13
2023-04-07T13:32:31.091Z,99151.11
2023-04-07T13:33:37.292Z,99151.53
2023-04-07T13:35:10.191Z,99153.67
2023-04-07T13:36:23.433Z,99153.81
2023-04-07T13:37:50.132Z,99149.18
2023-04-07T13:39:07.869Z,99152.98
2023-04-07T13:40:40.574Z,99150.20
2023-04-07T13:42:13.449Z,99148.52
2023-04-07T13:43:46.782Z,99148.15
2023-04-07T13:44:59.502Z,99152.77
2023-04-07T13:46:28.470Z,99152.11
2023-04-07T13:47:52.065Z,99150.54
2023-04-07T13:48:41.437Z,99151.83
2023-04-07T13:50:14.360Z,99154.20
2023-04-07T13:51:40.007Z,99152.39
2023-04-07T13:53:00.262Z,99153.53
2023-04-07T13:54:15.917Z,99154.08
2023-04-07T13:55:48.845Z,99151.80
2023-04-07T13:57:21.419Z,99151.27
2023-04-07T13:58:34.205Z,99146.05
2023-04-07T14:00:03.649Z,99148.98
2023-04-07T14:01:29.699Z,99147.69
2023-04-07T14:02:50.991Z,99149.23
2023-04-07T14:04:23.734Z,99149.79
2023-04-07T14:05:46.719Z,99149.45
2023-04-07T14:07:11.868Z,99152.37
2023-04-07T14:08:44.557Z,99155.77
2023-04-07T14:10:17.087Z,99151.47
2023-04-07T14:11:36.666Z,99155.68
2023-04-07T14:13:09.161Z,99156.04
2023-04-07T14:14:27.212Z,99159.34
2023-04-07T14:15:59.749Z,99157.02
2023-04-07T14:17:32.585Z,99161.31
2023-04-07T14:18:44.913Z,99161.48
2023-04-07T14:20:18.010Z,99161.22
2023-04-07T14:21:33.131Z,99163.19
2023-04-07T14:23:05.938Z,99161.23
2023-04-07T14:24:40.000Z,99161.45
2023-04-07T14:26:05.505Z,99158.90
2023-04-07T14:27:39.279Z,99159.09
2023-04-07T14:29:12.040Z,99161.89
2023-04-07T14:30:45.021Z,99166.31
2023-04-07T14:32:18.822Z,99169.56
2023-04-07T14:33:44.296Z,99169.67
2023-04-07T14:35:09.640Z,99169.34
2023-04-07T14:36:34.784Z,99172.10
2023-04-07T14:38:07.504Z,99173.11
2023-04-07T14:39:37.191Z,99172.91
2023-04-07T14:40:52.458Z,99173.43
2023-04-07T14:42:18.415Z,99172.55
2023-04-07T14:43:44.457Z,99176.75
2023-04-07T14:45:17.174Z,99178.23
2023-04-07T14:46:49.892Z,99178.41
2023-04-07T14:48:15.531Z,99181.98
2023-04-07T14:49:51.842Z,99182.71
2023-04-07T14:51:25.929Z,99184.61
2023-04-07T14:52:44.489Z,99183.95
2023-04-07T14:53:49.513Z,99183.80
2023-04-07T14:55:15.985Z,99187.77
2023-04-07T14:56:38.888Z,99184.73
2023-04-07T14:57:52.346Z,99187.13
2023-04-07T14:59:04.754Z,99187.20
2023-04-07T15:00:28.417Z,99189.05
2023-04-07T15:02:02.178Z,99186.30
2023-04-07T15:03:36.187Z,99189.27
2023-04-07T15:06:20.968Z,99199.62
2023-04-07T15:07:42.281Z,99197.23
2023-04-07T15:09:07.830Z,99200.05